sensor_id;sensor_type;location;lat;lon;timestamp;pressure;altitude;pressure_sealevel;temperature;humidity
65716;BME280;63484;52.054;8.518;2023-02-28T00:03:44;102153.88;;;-1.75;93.19
65716;BME280;63484;52.054;8.518;2023-02-28T00:08:45;102147.00;;;-1.75;93.32
65716;BME280;63484;52.054;8.518;2023-02-28T00:13:47;102146.06;;;-1.80;93.24
65716;BME280;63484;52.054;8.518;2023-02-28T00:18:50;102143.47;;;-1.81;93.08
65716;BME280;63484;52.054;8.518;2023-02-28T00:23:52;102145.28;;;-1.76;92.77
65716;BME280;63484;52.054;8.518;2023-02-28T00:28:53;102143.56;;;-1.75;92.61
65716;BME280;63484;52.054;8.518;2023-02-28T00:33:58;102144.44;;;-1.73;93.10
65716;BME280;63484;52.054;8.518;2023-02-28T00:38:59;102148.81;;;-1.68;92.71
65716;BME280;63484;52.054;8.518;2023-02-28T00:44:02;102158.28;;;-1.65;92.32
65716;BME280;63484;52.054;8.518;2023-02-28T00:49:07;102148.78;;;-1.69;92.39
65716;BME280;63484;52.054;8.518;2023-02-28T00:54:09;102152.31;;;-1.64;92.61
65716;BME280;63484;52.054;8.518;2023-02-28T00:59:11;102156.56;;;-1.66;92.49
65716;BME280;63484;52.054;8.518;2023-02-28T01:04:14;102157.44;;;-1.67;92.39
65716;BME280;63484;52.054;8.518;2023-02-28T01:09:16;102159.88;;;-1.75;92.80
65716;BME280;63484;52.054;8.518;2023-02-28T01:14:18;102158.97;;;-1.77;92.72
65716;BME280;63484;52.054;8.518;2023-02-28T01:19:21;102158.91;;;-1.84;92.82
65716;BME280;63484;52.054;8.518;2023-02-28T01:24:22;102157.03;;;-1.94;93.16
65716;BME280;63484;52.054;8.518;2023-02-28T01:29:24;102159.50;;;-2.03;93.15
65716;BME280;63484;52.054;8.518;2023-02-28T01:34:28;102165.31;;;-2.15;92.87
65716;BME280;63484;52.054;8.518;2023-02-28T01:39:29;102159.19;;;-2.23;93.19
65716;BME280;63484;52.054;8.518;2023-02-28T01:50:15;102154.72;;;-2.34;94.34
65716;BME280;63484;52.054;8.518;2023-02-28T01:55:19;102161.44;;;-2.44;94.24
65716;BME280;63484;52.054;8.518;2023-02-28T02:00:24;102157.00;;;-2.52;94.57
65716;BME280;63484;52.054;8.518;2023-02-28T02:05:30;102165.50;;;-2.58;94.60
65716;BME280;63484;52.054;8.518;2023-02-28T02:10:34;102162.97;;;-2.55;94.97
65716;BME280;63484;52.054;8.518;2023-02-28T02:15:41;102163.88;;;-2.51;94.80
65716;BME280;63484;52.054;8.518;2023-02-28T02:21:10;102162.31;;;-2.43;94.87
65716;BME280;63484;52.054;8.518;2023-02-28T02:26:43;102160.63;;;-2.40;94.61
65716;BME280;63484;52.054;8.518;2023-02-28T02:31:57;102154.81;;;-2.28;94.81
65716;BME280;63484;52.054;8.518;2023-02-28T02:37:13;102146.28;;;-2.24;94.37
65716;BME280;63484;52.054;8.518;2023-02-28T02:42:21;102141.97;;;-2.25;93.96
65716;BME280;63484;52.054;8.518;2023-02-28T02:47:27;102145.28;;;-2.35;94.26
65716;BME280;63484;52.054;8.518;2023-02-28T02:52:35;102150.22;;;-2.47;93.98
65716;BME280;63484;52.054;8.518;2023-02-28T02:57:43;102156.16;;;-2.53;94.64
65716;BME280;63484;52.054;8.518;2023-02-28T03:02:49;102161.94;;;-2.64;94.68
65716;BME280;63484;52.054;8.518;2023-02-28T03:07:54;102167.84;;;-2.70;95.11
65716;BME280;63484;52.054;8.518;2023-02-28T03:13:03;102159.16;;;-2.76;95.34
65716;BME280;63484;52.054;8.518;2023-02-28T03:18:12;102166.03;;;-2.75;95.81
65716;BME280;63484;52.054;8.518;2023-02-28T03:23:21;102153.06;;;-2.82;95.52
65716;BME280;63484;52.054;8.518;2023-02-28T03:28:31;102153.88;;;-2.86;95.53
65716;BME280;63484;52.054;8.518;2023-02-28T03:33:36;102159.72;;;-2.93;95.67
65716;BME280;63484;52.054;8.518;2023-02-28T03:38:45;102157.78;;;-3.06;95.56
65716;BME280;63484;52.054;8.518;2023-02-28T03:43:56;102152.53;;;-3.12;95.78
65716;BME280;63484;52.054;8.518;2023-02-28T03:49:03;102148.94;;;-3.20;96.23
65716;BME280;63484;52.054;8.518;2023-02-28T03:54:11;102152.16;;;-3.30;96.12
65716;BME280;63484;52.054;8.518;2023-02-28T03:59:18;102154.59;;;-3.37;96.30
65716;BME280;63484;52.054;8.518;2023-02-28T04:04:21;102154.50;;;-3.40;96.43
65716;BME280;63484;52.054;8.518;2023-02-28T04:09:24;102152.88;;;-3.37;96.71
65716;BME280;63484;52.054;8.518;2023-02-28T04:14:25;102158.75;;;-3.44;96.39
65716;BME280;63484;52.054;8.518;2023-02-28T04:19:27;102155.28;;;-3.46;96.55
65716;BME280;63484;52.054;8.518;2023-02-28T04:24:29;102149.13;;;-3.54;96.48
65716;BME280;63484;52.054;8.518;2023-02-28T04:29:31;102150.66;;;-3.62;96.43
65716;BME280;63484;52.054;8.518;2023-02-28T04:34:33;102151.31;;;-3.72;96.61
65716;BME280;63484;52.054;8.518;2023-02-28T04:39:36;102151.44;;;-3.66;97.30
65716;BME280;63484;52.054;8.518;2023-02-28T04:44:37;102152.97;;;-3.74;96.67
65716;BME280;63484;52.054;8.518;2023-02-28T04:49:39;102153.63;;;-3.82;96.70
65716;BME280;63484;52.054;8.518;2023-02-28T04:54:43;102143.47;;;-3.78;97.05
65716;BME280;63484;52.054;8.518;2023-02-28T04:59:44;102150.44;;;-3.72;97.25
65716;BME280;63484;52.054;8.518;2023-02-28T05:04:46;102151.25;;;-3.75;96.93
65716;BME280;63484;52.054;8.518;2023-02-28T05:09:49;102153.75;;;-3.78;96.76
65716;BME280;63484;52.054;8.518;2023-02-28T05:14:50;102160.44;;;-3.86;96.43
65716;BME280;63484;52.054;8.518;2023-02-28T05:19:52;102171.56;;;-3.84;96.67
65716;BME280;63484;52.054;8.518;2023-02-28T05:24:54;102162.13;;;-3.86;96.41
65716;BME280;63484;52.054;8.518;2023-02-28T05:29:56;102171.44;;;-3.90;96.11
65716;BME280;63484;52.054;8.518;2023-02-28T05:34:57;102170.56;;;-3.90;96.05
65716;BME280;63484;52.054;8.518;2023-02-28T05:40:00;102181.78;;;-3.87;95.88
65716;BME280;63484;52.054;8.518;2023-02-28T05:45:02;102175.91;;;-3.83;95.71
65716;BME280;63484;52.054;8.518;2023-02-28T05:50:04;102175.00;;;-3.85;95.27
65716;BME280;63484;52.054;8.518;2023-02-28T05:55:08;102179.00;;;-3.97;95.08
65716;BME280;63484;52.054;8.518;2023-02-28T06:00:11;102181.31;;;-4.08;94.94
65716;BME280;63484;52.054;8.518;2023-02-28T06:05:16;102178.81;;;-4.05;95.71
65716;BME280;63484;52.054;8.518;2023-02-28T06:10:20;102184.06;;;-4.00;96.00
65716;BME280;63484;52.054;8.518;2023-02-28T06:15:21;102183.13;;;-4.04;95.74
65716;BME280;63484;52.054;8.518;2023-02-28T06:20:23;102174.59;;;-4.03;95.86
65716;BME280;63484;52.054;8.518;2023-02-28T06:25:27;102177.16;;;-4.03;95.93
65716;BME280;63484;52.054;8.518;2023-02-28T06:30:29;102178.06;;;-4.01;95.58
65716;BME280;63484;52.054;8.518;2023-02-28T06:35:31;102184.34;;;-3.87;95.13
65716;BME280;63484;52.054;8.518;2023-02-28T06:40:34;102177.84;;;-3.73;94.57
65716;BME280;63484;52.054;8.518;2023-02-28T06:45:36;102196.50;;;-3.40;93.69
65716;BME280;63484;52.054;8.518;2023-02-28T06:50:37;102201.47;;;-3.06;92.21
65716;BME280;63484;52.054;8.518;2023-02-28T06:55:40;102205.84;;;-2.55;90.58
65716;BME280;63484;52.054;8.518;2023-02-28T07:00:42;102205.84;;;-2.03;88.04
65716;BME280;63484;52.054;8.518;2023-02-28T07:05:44;102209.50;;;-1.26;85.34
65716;BME280;63484;52.054;8.518;2023-02-28T07:10:47;102217.38;;;-0.32;79.75
65716;BME280;63484;52.054;8.518;2023-02-28T07:15:53;102222.03;;;0.13;77.92
65716;BME280;63484;52.054;8.518;2023-02-28T07:20:56;102227.72;;;1.15;73.53
65716;BME280;63484;52.054;8.518;2023-02-28T07:25:58;102232.84;;;0.94;74.69
65716;BME280;63484;52.054;8.518;2023-02-28T07:31:03;102229.53;;;1.61;71.84
65716;BME280;63484;52.054;8.518;2023-02-28T07:36:07;102234.72;;;2.20;70.33
65716;BME280;63484;52.054;8.518;2023-02-28T07:41:10;102235.34;;;3.05;66.58
65716;BME280;63484;52.054;8.518;2023-02-28T07:46:13;102225.59;;;4.41;62.25
65716;BME280;63484;52.054;8.518;2023-02-28T07:51:15;102235.25;;;6.21;57.24
65716;BME280;63484;52.054;8.518;2023-02-28T07:56:18;102242.31;;;7.46;53.84
65716;BME280;63484;52.054;8.518;2023-02-28T08:01:20;102243.00;;;9.20;49.84
65716;BME280;63484;52.054;8.518;2023-02-28T08:06:23;102241.59;;;11.82;42.14
65716;BME280;63484;52.054;8.518;2023-02-28T08:11:26;102254.47;;;12.72;39.40
65716;BME280;63484;52.054;8.518;2023-02-28T08:16:28;102246.91;;;11.59;41.51
65716;BME280;63484;52.054;8.518;2023-02-28T08:21:29;102242.53;;;12.23;40.63
65716;BME280;63484;52.054;8.518;2023-02-28T08:26:32;102240.91;;;12.20;40.24
65716;BME280;63484;52.054;8.518;2023-02-28T08:31:33;102251.88;;;13.10;37.17
65716;BME280;63484;52.054;8.518;2023-02-28T08:36:35;102237.91;;;9.97;43.37
65716;BME280;63484;52.054;8.518;2023-02-28T08:41:38;102233.75;;;9.64;43.01
65716;BME280;63484;52.054;8.518;2023-02-28T08:46:39;102234.06;;;6.39;51.19
65716;BME280;63484;52.054;8.518;2023-02-28T08:51:41;102230.66;;;4.56;52.94
65716;BME280;63484;52.054;8.518;2023-02-28T08:56:43;102232.16;;;3.92;55.77
65716;BME280;63484;52.054;8.518;2023-02-28T09:01:45;102233.34;;;3.46;57.87
65716;BME280;63484;52.054;8.518;2023-02-28T09:06:46;102239.50;;;3.33;58.24
65716;BME280;63484;52.054;8.518;2023-02-28T09:11:50;102245.34;;;3.65;58.17
65716;BME280;63484;52.054;8.518;2023-02-28T09:16:51;102237.56;;;3.65;59.38
65716;BME280;63484;52.054;8.518;2023-02-28T09:21:52;102229.00;;;3.51;59.17
65716;BME280;63484;52.054;8.518;2023-02-28T09:26:55;102224.63;;;3.56;57.48
65716;BME280;63484;52.054;8.518;2023-02-28T09:31:57;102228.16;;;3.46;55.37
65716;BME280;63484;52.054;8.518;2023-02-28T09:36:58;102231.38;;;3.79;55.55
65716;BME280;63484;52.054;8.518;2023-02-28T09:42:02;102236.69;;;3.66;55.64
65716;BME280;63484;52.054;8.518;2023-02-28T09:47:08;102233.91;;;3.90;55.25
65716;BME280;63484;52.054;8.518;2023-02-28T09:52:14;102248.81;;;3.65;55.05
65716;BME280;63484;52.054;8.518;2023-02-28T09:57:26;102238.44;;;3.62;53.75
65716;BME280;63484;52.054;8.518;2023-02-28T10:02:48;102232.16;;;3.92;53.05
65716;BME280;63484;52.054;8.518;2023-02-28T10:08:03;102237.97;;;4.21;51.53
65716;BME280;63484;52.054;8.518;2023-02-28T10:13:17;102224.75;;;4.41;51.68
65716;BME280;63484;52.054;8.518;2023-02-28T10:18:24;102225.31;;;4.70;48.09
65716;BME280;63484;52.054;8.518;2023-02-28T10:23:31;102227.94;;;4.68;48.87
65716;BME280;63484;52.054;8.518;2023-02-28T10:28:34;102224.97;;;4.97;48.46
65716;BME280;63484;52.054;8.518;2023-02-28T10:33:35;102222.16;;;5.13;48.80
65716;BME280;63484;52.054;8.518;2023-02-28T10:38:38;102221.50;;;4.96;46.33
65716;BME280;63484;52.054;8.518;2023-02-28T10:43:43;102220.81;;;4.82;47.86
65716;BME280;63484;52.054;8.518;2023-02-28T10:48:48;102218.56;;;5.20;47.95
65716;BME280;63484;52.054;8.518;2023-02-28T10:53:52;102218.31;;;4.73;48.43
65716;BME280;63484;52.054;8.518;2023-02-28T10:58:57;102214.28;;;4.45;48.42
65716;BME280;63484;52.054;8.518;2023-02-28T11:03:59;102212.00;;;4.92;48.27
65716;BME280;63484;52.054;8.518;2023-02-28T11:09:03;102215.22;;;5.11;47.86
65716;BME280;63484;52.054;8.518;2023-02-28T11:14:19;102207.22;;;5.24;46.39
65716;BME280;63484;52.054;8.518;2023-02-28T11:19:24;102195.00;;;5.28;47.72
65716;BME280;63484;52.054;8.518;2023-02-28T11:24:28;102197.38;;;5.41;47.73
65716;BME280;63484;52.054;8.518;2023-02-28T11:29:33;102194.63;;;5.53;46.20
65716;BME280;63484;52.054;8.518;2023-02-28T11:34:37;102193.75;;;5.51;45.92
65716;BME280;63484;52.054;8.518;2023-02-28T11:39:38;102186.16;;;5.39;46.86
65716;BME280;63484;52.054;8.518;2023-02-28T11:44:51;102189.25;;;5.64;44.52
65716;BME280;63484;52.054;8.518;2023-02-28T11:50:07;102196.59;;;5.38;45.53
65716;BME280;63484;52.054;8.518;2023-02-28T11:55:17;102178.81;;;5.64;45.99
65716;BME280;63484;52.054;8.518;2023-02-28T12:00:36;102181.41;;;5.62;45.22
65716;BME280;63484;52.054;8.518;2023-02-28T12:05:44;102169.28;;;5.61;45.43
65716;BME280;63484;52.054;8.518;2023-02-28T12:10:57;102163.91;;;5.71;45.13
65716;BME280;63484;52.054;8.518;2023-02-28T12:16:21;102153.88;;;5.98;44.86
65716;BME280;63484;52.054;8.518;2023-02-28T12:21:37;102145.06;;;6.04;44.59
65716;BME280;63484;52.054;8.518;2023-02-28T12:26:44;102138.97;;;6.05;44.44
65716;BME280;63484;52.054;8.518;2023-02-28T12:31:51;102151.28;;;5.97;44.69
65716;BME280;63484;52.054;8.518;2023-02-28T12:36:55;102134.31;;;5.72;45.35
65716;BME280;63484;52.054;8.518;2023-02-28T12:42:01;102120.31;;;5.76;46.19
65716;BME280;63484;52.054;8.518;2023-02-28T12:47:11;102118.66;;;5.72;45.94
65716;BME280;63484;52.054;8.518;2023-02-28T12:52:19;102116.06;;;5.72;45.85
65716;BME280;63484;52.054;8.518;2023-02-28T12:57:29;102121.38;;;5.65;45.49
65716;BME280;63484;52.054;8.518;2023-02-28T13:02:54;102110.16;;;5.60;44.88
65716;BME280;63484;52.054;8.518;2023-02-28T13:08:36;102103.22;;;5.59;45.73
65716;BME280;63484;52.054;8.518;2023-02-28T13:13:44;102096.81;;;5.79;45.38
65716;BME280;63484;52.054;8.518;2023-02-28T13:18:48;102103.03;;;5.70;45.36
65716;BME280;63484;52.054;8.518;2023-02-28T13:23:58;102097.59;;;5.84;45.61
65716;BME280;63484;52.054;8.518;2023-02-28T13:29:02;102093.31;;;5.78;45.22
65716;BME280;63484;52.054;8.518;2023-02-28T13:34:13;102094.94;;;5.87;45.33
65716;BME280;63484;52.054;8.518;2023-02-28T13:39:45;102097.69;;;5.78;44.79
65716;BME280;63484;52.054;8.518;2023-02-28T13:45:20;102095.88;;;5.83;45.17
65716;BME280;63484;52.054;8.518;2023-02-28T13:50:28;102090.72;;;5.78;44.85
65716;BME280;63484;52.054;8.518;2023-02-28T13:55:34;102092.28;;;5.90;45.32
65716;BME280;63484;52.054;8.518;2023-02-28T14:00:59;102088.91;;;5.83;46.09
65716;BME280;63484;52.054;8.518;2023-02-28T14:06:14;102076.78;;;5.79;46.42
65716;BME280;63484;52.054;8.518;2023-02-28T14:11:26;102086.31;;;5.82;46.41
65716;BME280;63484;52.054;8.518;2023-02-28T14:16:38;102070.53;;;5.89;47.22
65716;BME280;63484;52.054;8.518;2023-02-28T14:21:55;102070.88;;;5.69;47.51
65716;BME280;63484;52.054;8.518;2023-02-28T14:27:24;102072.44;;;5.78;47.04
65716;BME280;63484;52.054;8.518;2023-02-28T14:32:33;102059.38;;;5.80;47.41
65716;BME280;63484;52.054;8.518;2023-02-28T14:37:39;102061.41;;;5.62;47.80
65716;BME280;63484;52.054;8.518;2023-02-28T14:42:47;102045.81;;;5.59;47.53
65716;BME280;63484;52.054;8.518;2023-02-28T14:47:51;102044.84;;;5.66;47.99
65716;BME280;63484;52.054;8.518;2023-02-28T14:52:54;102046.25;;;5.86;48.28
65716;BME280;63484;52.054;8.518;2023-02-28T14:57:57;102045.50;;;5.78;48.58
65716;BME280;63484;52.054;8.518;2023-02-28T15:03:00;102048.28;;;5.68;48.76
65716;BME280;63484;52.054;8.518;2023-02-28T15:08:09;102051.69;;;5.72;49.53
65716;BME280;63484;52.054;8.518;2023-02-28T15:13:13;102055.03;;;5.80;49.84
65716;BME280;63484;52.054;8.518;2023-02-28T15:18:23;102061.59;;;5.53;48.92
65716;BME280;63484;52.054;8.518;2023-02-28T15:23:28;102057.13;;;5.60;49.50
65716;BME280;63484;52.054;8.518;2023-02-28T15:28:31;102056.56;;;5.44;50.23
65716;BME280;63484;52.054;8.518;2023-02-28T15:33:33;102055.66;;;5.45;50.74
65716;BME280;63484;52.054;8.518;2023-02-28T15:38:36;102051.34;;;5.41;50.71
65716;BME280;63484;52.054;8.518;2023-02-28T15:43:38;102060.94;;;5.42;51.02
65716;BME280;63484;52.054;8.518;2023-02-28T15:48:43;102063.59;;;5.39;51.28
65716;BME280;63484;52.054;8.518;2023-02-28T15:53:48;102065.53;;;5.25;51.26
65716;BME280;63484;52.054;8.518;2023-02-28T15:58:53;102076.91;;;5.21;50.32
65716;BME280;63484;52.054;8.518;2023-02-28T16:03:59;102076.06;;;5.21;49.87
65716;BME280;63484;52.054;8.518;2023-02-28T16:09:04;102062.16;;;5.20;50.01
65716;BME280;63484;52.054;8.518;2023-02-28T16:14:16;102069.41;;;5.02;50.81
65716;BME280;63484;52.054;8.518;2023-02-28T16:19:18;102074.75;;;4.94;50.84
65716;BME280;63484;52.054;8.518;2023-02-28T16:24:22;102073.94;;;4.89;51.13
65716;BME280;63484;52.054;8.518;2023-02-28T16:29:27;102065.47;;;4.75;51.65
65716;BME280;63484;52.054;8.518;2023-02-28T16:34:30;102062.84;;;4.75;52.01
65716;BME280;63484;52.054;8.518;2023-02-28T16:39:32;102062.94;;;4.69;52.14
65716;BME280;63484;52.054;8.518;2023-02-28T16:44:35;102069.22;;;4.56;52.71
65716;BME280;63484;52.054;8.518;2023-02-28T16:49:37;102066.84;;;4.38;53.93
65716;BME280;63484;52.054;8.518;2023-02-28T16:54:41;102075.78;;;4.17;55.50
65716;BME280;63484;52.054;8.518;2023-02-28T16:59:42;102069.88;;;4.05;55.49
65716;BME280;63484;52.054;8.518;2023-02-28T17:04:44;102077.78;;;3.93;56.25
65716;BME280;63484;52.054;8.518;2023-02-28T17:09:47;102070.97;;;3.83;57.02
65716;BME280;63484;52.054;8.518;2023-02-28T17:14:48;102079.75;;;3.70;57.62
65716;BME280;63484;52.054;8.518;2023-02-28T17:19:49;102072.16;;;3.50;58.37
65716;BME280;63484;52.054;8.518;2023-02-28T17:24:52;102077.47;;;3.38;59.02
65716;BME280;63484;52.054;8.518;2023-02-28T17:29:57;102085.38;;;3.23;59.57
65716;BME280;63484;52.054;8.518;2023-02-28T17:35:00;102078.56;;;3.10;60.12
65716;BME280;63484;52.054;8.518;2023-02-28T17:40:03;102090.81;;;2.95;60.55
65716;BME280;63484;52.054;8.518;2023-02-28T17:45:05;102093.44;;;2.84;61.43
65716;BME280;63484;52.054;8.518;2023-02-28T17:50:11;102096.97;;;2.72;62.17
65716;BME280;63484;52.054;8.518;2023-02-28T17:55:16;102106.59;;;2.55;63.13
65716;BME280;63484;52.054;8.518;2023-02-28T18:00:20;102117.94;;;2.35;63.92
65716;BME280;63484;52.054;8.518;2023-02-28T18:05:24;102116.19;;;2.40;65.16
65716;BME280;63484;52.054;8.518;2023-02-28T18:10:27;102123.97;;;2.35;65.32
65716;BME280;63484;52.054;8.518;2023-02-28T18:15:28;102130.97;;;2.15;64.71
65716;BME280;63484;52.054;8.518;2023-02-28T18:20:29;102128.41;;;2.05;65.19
65716;BME280;63484;52.054;8.518;2023-02-28T18:25:32;102123.22;;;1.90;65.88
65716;BME280;63484;52.054;8.518;2023-02-28T18:30:36;102121.53;;;1.74;66.55
65716;BME280;63484;52.054;8.518;2023-02-28T18:35:37;102117.25;;;1.65;67.15
65716;BME280;63484;52.054;8.518;2023-02-28T18:40:41;102109.44;;;1.59;68.05
65716;BME280;63484;52.054;8.518;2023-02-28T18:45:43;102112.06;;;1.47;68.50
65716;BME280;63484;52.054;8.518;2023-02-28T18:50:45;102102.56;;;1.32;68.86
65716;BME280;63484;52.054;8.518;2023-02-28T18:55:48;102113.78;;;1.16;70.09
65716;BME280;63484;52.054;8.518;2023-02-28T19:00:49;102115.50;;;1.10;70.64
65716;BME280;63484;52.054;8.518;2023-02-28T19:05:53;102117.19;;;0.96;71.08
65716;BME280;63484;52.054;8.518;2023-02-28T19:10:56;102114.59;;;0.81;71.44
65716;BME280;63484;52.054;8.518;2023-02-28T19:16:00;102104.19;;;0.66;71.72
65716;BME280;63484;52.054;8.518;2023-02-28T19:21:02;102110.19;;;0.60;72.16
65716;BME280;63484;52.054;8.518;2023-02-28T19:26:06;102108.47;;;0.53;73.15
65716;BME280;63484;52.054;8.518;2023-02-28T19:31:11;102111.88;;;0.45;74.25
65716;BME280;63484;52.054;8.518;2023-02-28T19:36:14;102115.28;;;0.35;74.59
65716;BME280;63484;52.054;8.518;2023-02-28T19:41:18;102123.03;;;0.30;74.86
65716;BME280;63484;52.054;8.518;2023-02-28T19:46:19;102129.88;;;0.22;75.18
65716;BME280;63484;52.054;8.518;2023-02-28T19:51:21;102124.63;;;0.09;76.13
65716;BME280;63484;52.054;8.518;2023-02-28T19:56:24;102128.88;;;-0.07;76.58
65716;BME280;63484;52.054;8.518;2023-02-28T20:01:25;102122.78;;;-0.17;78.03
65716;BME280;63484;52.054;8.518;2023-02-28T20:06:30;102116.69;;;-0.28;78.39
65716;BME280;63484;52.054;8.518;2023-02-28T20:11:33;102116.53;;;-0.46;79.00
65716;BME280;63484;52.054;8.518;2023-02-28T20:16:34;102120.78;;;-0.55;79.00
65716;BME280;63484;52.054;8.518;2023-02-28T20:21:35;102116.44;;;-0.56;79.51
65716;BME280;63484;52.054;8.518;2023-02-28T20:26:39;102118.16;;;-0.57;80.29
65716;BME280;63484;52.054;8.518;2023-02-28T20:31:40;102111.22;;;-0.67;80.10
65716;BME280;63484;52.054;8.518;2023-02-28T20:36:42;102128.38;;;-0.72;80.52
65716;BME280;63484;52.054;8.518;2023-02-28T20:41:44;102140.41;;;-0.74;81.54
65716;BME280;63484;52.054;8.518;2023-02-28T20:46:46;102144.66;;;-0.76;81.76
65716;BME280;63484;52.054;8.518;2023-02-28T20:51:47;102148.91;;;-0.81;81.55
65716;BME280;63484;52.054;8.518;2023-02-28T20:56:50;102148.84;;;-0.90;81.85
65716;BME280;63484;52.054;8.518;2023-02-28T21:01:51;102154.81;;;-0.95;82.39
65716;BME280;63484;52.054;8.518;2023-02-28T21:06:55;102152.16;;;-1.01;82.16
65716;BME280;63484;52.054;8.518;2023-02-28T21:11:58;102153.78;;;-1.11;83.71
65716;BME280;63484;52.054;8.518;2023-02-28T21:16:59;102157.16;;;-1.15;84.55
65716;BME280;63484;52.054;8.518;2023-02-28T21:22:01;102157.09;;;-1.22;85.48
65716;BME280;63484;52.054;8.518;2023-02-28T21:27:04;102163.03;;;-1.29;85.40
65716;BME280;63484;52.054;8.518;2023-02-28T21:32:06;102159.59;;;-1.31;86.28
65716;BME280;63484;52.054;8.518;2023-02-28T21:37:07;102162.06;;;-1.38;86.89
65716;BME280;63484;52.054;8.518;2023-02-28T21:42:10;102153.41;;;-1.43;86.90
65716;BME280;63484;52.054;8.518;2023-02-28T21:47:12;102145.53;;;-1.56;87.22
65716;BME280;63484;52.054;8.518;2023-02-28T21:52:13;102154.94;;;-1.60;87.63
65716;BME280;63484;52.054;8.518;2023-02-28T21:57:16;102155.75;;;-1.62;87.91
65716;BME280;63484;52.054;8.518;2023-02-28T22:02:18;102154.78;;;-1.70;87.23
65716;BME280;63484;52.054;8.518;2023-02-28T22:07:20;102152.09;;;-1.78;86.98
65716;BME280;63484;52.054;8.518;2023-02-28T22:12:22;102146.03;;;-1.81;87.12
65716;BME280;63484;52.054;8.518;2023-02-28T22:17:24;102142.53;;;-1.86;87.31
65716;BME280;63484;52.054;8.518;2023-02-28T22:22:26;102154.59;;;-1.85;87.78
65716;BME280;63484;52.054;8.518;2023-02-28T22:27:28;102147.59;;;-1.94;87.68
65716;BME280;63484;52.054;8.518;2023-02-28T22:32:30;102151.00;;;-1.96;87.98
65716;BME280;63484;52.054;8.518;2023-02-28T22:37:31;102143.22;;;-1.98;88.41
65716;BME280;63484;52.054;8.518;2023-02-28T22:42:34;102154.34;;;-2.03;88.81
65716;BME280;63484;52.054;8.518;2023-02-28T22:47:35;102163.72;;;-2.07;88.69
65716;BME280;63484;52.054;8.518;2023-02-28T22:52:38;102160.19;;;-2.13;88.85
65716;BME280;63484;52.054;8.518;2023-02-28T22:57:41;102164.38;;;-2.20;88.38
65716;BME280;63484;52.054;8.518;2023-02-28T23:02:43;102171.22;;;-2.20;88.96
65716;BME280;63484;52.054;8.518;2023-02-28T23:07:44;102162.66;;;-2.21;89.90
65716;BME280;63484;52.054;8.518;2023-02-28T23:12:47;102157.47;;;-2.24;89.55
65716;BME280;63484;52.054;8.518;2023-02-28T23:17:52;102167.66;;;-2.28;89.89
65716;BME280;63484;52.054;8.518;2023-02-28T23:22:53;102159.09;;;-2.30;89.79
65716;BME280;63484;52.054;8.518;2023-02-28T23:27:56;102155.53;;;-2.38;89.98
65716;BME280;63484;52.054;8.518;2023-02-28T23:32:58;102157.03;;;-2.49;89.67
65716;BME280;63484;52.054;8.518;2023-02-28T23:37:59;102160.41;;;-2.55;89.48
65716;BME280;63484;52.054;8.518;2023-02-28T23:43:02;102164.59;;;-2.60;89.76
65716;BME280;63484;52.054;8.518;2023-02-28T23:48:05;102159.44;;;-2.60;90.11
65716;BME280;63484;52.054;8.518;2023-02-28T23:53:06;102161.16;;;-2.59;90.52
65716;BME280;63484;52.054;8.518;2023-02-28T23:58:09;102146.59;;;-2.58;90.30
